Hauptseite
METAR-TAF:

METAR-TAF

Flughäfen :

Benson, England

RAF Benson

Breite: 51-37N, Länge: 001-05W, Höhe: 63 m

Beobachtung

Neuester Wetterbericht von vor 1 Stunde und 0 Minuten, um 05:50 UTC
Wind 9 kt aus Süd/Südost
Temperatur 14°C
Luftfeuchtigkeit 88%
Luftdruck 1009 hPa
Sichtweite 10 km oder mehr

METAR: EGUB 220550Z AUTO 16009KT 9999 // NCD 14/12 Q1009

Zeit: 07:50 (06:50 UTC)

Prognose

Neuester Wetterbericht von vor 17 Stunden und 12 Minuten, um 13:38 UTC
Gültige Prognose vom 21 um 15 UTC bis 21 um 18 UTC
Wind 6 kt aus Süd/Südost
Sichtweite 10 km oder mehr
keine Wolken unter 1500 m und keine Kumulonimbus oder Gewitterwolken
Wahrscheinlichkeit 30% :
Zeitweise
vom 21 um 15 UTC bis 21 um 18 UTC
Sichtweite: 7000 m
Aufgelockert bewölkt in der Höhe von 5000 ft, Kumulonimbus.
Regenschauer

TAF: EGUB 211338Z 2115/2118 15006KT CAVOK PROB30 TEMPO 2115/2118 7000 SHRA SCT050CB

Wetterbeobachtungen und Prognosen von mehr als 4000 Flughäfen (METAR und TAF Bericht).

Die verfügbaren Stationen werden durch gelbe und rote Markierungen auf der Karte dargestellt.

Führen Sie die Maus auf sie, um den Namen der Station zu sehen.

Darauf klicken, um die Beobachtung von Wetterbeobachtungen und Prognosen zu sehen.

Um die Karte zu ändern : klicken Sie auf den grünen Tasten mit einem schwarzen Kreuz Zum Vergrößern, auf den grünen Button mit einem Gedankenstrich zu verkleinern, oder auf die grünen Pfeile für benachbarte Karten.


METAR-TAF: